AFR1400 LFPG-LEMD
Flight info
| Callsign | AFR1400 |
|---|---|
| Flight time | N/A |
| Altitude | 33000 |
| Route | AGOPA DCT ARKIP DCT ARNAV DCT LMG DCT UVELI DCT OSMOB DCT ARVID DCT PPN DCT NOLSA DCT ALEPO DCT VASUM DCT BANEV |
| Aircraft | A20N/M-SDE2E3FGHIRWXY/LB1 |
Departure
| Time | 2026-05-07 18:10 |
|---|---|
| Airport | Charles de Gaulle International Airport (LFPG) |
Arrival
| Time | N/A |
|---|---|
| Airport | Adolfo Suárez Madrid–Barajas Airport (LEMD) |
| Time | Latitude | Longitude | Altitude | Speed | Heading |
|---|---|---|---|---|---|
| 2026-05-07 18:10 | 48.83214 | 2.61252 | 21647 ft | 394 kts | 243° |
| 2026-05-07 18:10 | 48.81878 | 2.57792 | 22145 ft | 396 kts | 233° |
| 2026-05-07 18:10 | 48.80257 | 2.54392 | 22662 ft | 399 kts | 233° |
| 2026-05-07 18:10 | 48.78672 | 2.51027 | 23149 ft | 402 kts | 234° |
| 2026-05-07 18:11 | 48.77059 | 2.47589 | 23643 ft | 405 kts | 234° |
| 2026-05-07 18:11 | 48.75966 | 2.45257 | 23954 ft | 407 kts | 234° |
| 2026-05-07 18:11 | 48.73620 | 2.40728 | 24574 ft | 410 kts | 225° |
| 2026-05-07 18:11 | 48.71499 | 2.37811 | 25017 ft | 412 kts | 217° |
| 2026-05-07 18:12 | 48.69103 | 2.35402 | 25454 ft | 414 kts | 209° |
| 2026-05-07 18:12 | 48.66610 | 2.33190 | 25892 ft | 417 kts | 210° |
| 2026-05-07 18:12 | 48.64109 | 2.30951 | 26302 ft | 420 kts | 210° |
| 2026-05-07 18:12 | 48.61580 | 2.28681 | 26710 ft | 423 kts | 210° |
| 2026-05-07 18:13 | 48.59052 | 2.26411 | 27088 ft | 425 kts | 210° |
| 2026-05-07 18:13 | 48.56496 | 2.24116 | 27449 ft | 428 kts | 210° |
| 2026-05-07 18:13 | 48.53930 | 2.21815 | 27833 ft | 430 kts | 210° |
| 2026-05-07 18:13 | 48.51347 | 2.19503 | 28179 ft | 433 kts | 210° |
| 2026-05-07 18:14 | 48.48780 | 2.17219 | 28523 ft | 435 kts | 209° |
| 2026-05-07 18:14 | 48.46127 | 2.14888 | 28859 ft | 437 kts | 209° |
| 2026-05-07 18:14 | 48.43482 | 2.12575 | 29177 ft | 440 kts | 209° |
| 2026-05-07 18:14 | 48.40829 | 2.10258 | 29495 ft | 442 kts | 209° |
| 2026-05-07 18:15 | 48.38166 | 2.07931 | 29776 ft | 444 kts | 209° |
| 2026-05-07 18:15 | 48.35488 | 2.05592 | 30092 ft | 446 kts | 209° |
| 2026-05-07 18:15 | 48.32785 | 2.03282 | 30381 ft | 448 kts | 205° |
| 2026-05-07 18:15 | 48.29929 | 2.01557 | 30666 ft | 449 kts | 195° |
| 2026-05-07 18:16 | 48.26910 | 2.00618 | 30830 ft | 452 kts | 185° |
| 2026-05-07 18:16 | 48.23773 | 2.00500 | 31241 ft | 450 kts | 178° |
| 2026-05-07 18:16 | 48.20644 | 2.00612 | 31485 ft | 453 kts | 178° |
| 2026-05-07 18:16 | 48.17463 | 2.00713 | 31747 ft | 455 kts | 178° |
| 2026-05-07 18:17 | 48.14294 | 2.00807 | 32011 ft | 457 kts | 178° |
| 2026-05-07 18:17 | 48.11110 | 2.00898 | 32271 ft | 458 kts | 178° |
| 2026-05-07 18:17 | 48.07948 | 2.00988 | 32504 ft | 460 kts | 178° |
| 2026-05-07 18:17 | 48.04701 | 2.01134 | 32729 ft | 462 kts | 177° |
| 2026-05-07 18:18 | 48.01487 | 2.01337 | 33013 ft | 463 kts | 176° |
| 2026-05-07 18:18 | 47.98270 | 2.01549 | 33116 ft | 462 kts | 176° |
| 2026-05-07 18:18 | 47.95062 | 2.01755 | 33168 ft | 460 kts | 177° |
| 2026-05-07 18:19 | 47.88706 | 2.02144 | 33178 ft | 460 kts | 177° |
| 2026-05-07 18:19 | 47.82306 | 2.02525 | 33166 ft | 460 kts | 177° |
| 2026-05-07 18:20 | 47.75903 | 2.02903 | 33166 ft | 460 kts | 177° |
| 2026-05-07 18:20 | 47.69508 | 2.03279 | 33174 ft | 460 kts | 177° |
| 2026-05-07 18:21 | 47.63106 | 2.02754 | 33179 ft | 462 kts | 189° |
| 2026-05-07 18:21 | 47.56970 | 2.00005 | 33172 ft | 463 kts | 201° |
| 2026-05-07 18:22 | 47.50973 | 1.96480 | 33164 ft | 462 kts | 201° |
| 2026-05-07 18:22 | 47.44965 | 1.92996 | 33170 ft | 463 kts | 200° |
| 2026-05-07 18:23 | 47.38970 | 1.89537 | 33174 ft | 463 kts | 200° |
| 2026-05-07 18:23 | 47.32958 | 1.86079 | 33165 ft | 463 kts | 200° |
| 2026-05-07 18:24 | 47.27050 | 1.82688 | 33158 ft | 462 kts | 200° |
| 2026-05-07 18:24 | 47.21058 | 1.79256 | 33168 ft | 461 kts | 200° |
| 2026-05-07 18:25 | 47.15068 | 1.75863 | 33161 ft | 461 kts | 200° |
| 2026-05-07 18:25 | 47.09082 | 1.72498 | 33166 ft | 461 kts | 200° |
| 2026-05-07 18:26 | 47.03069 | 1.69122 | 33170 ft | 463 kts | 200° |
| 2026-05-07 18:26 | 46.98030 | 1.66297 | 33166 ft | 463 kts | 200° |
| 2026-05-07 18:27 | 46.92044 | 1.62948 | 33176 ft | 463 kts | 200° |
| 2026-05-07 18:27 | 46.86019 | 1.59586 | 33173 ft | 462 kts | 200° |
| 2026-05-07 18:28 | 46.79998 | 1.56233 | 33167 ft | 463 kts | 200° |
| 2026-05-07 18:28 | 46.73975 | 1.52889 | 33160 ft | 462 kts | 200° |
| 2026-05-07 18:29 | 46.67949 | 1.49550 | 33168 ft | 464 kts | 200° |
| 2026-05-07 18:29 | 46.62013 | 1.46269 | 33161 ft | 462 kts | 200° |
| 2026-05-07 18:30 | 46.55995 | 1.42951 | 33166 ft | 463 kts | 200° |
| 2026-05-07 18:30 | 46.49958 | 1.39630 | 33172 ft | 463 kts | 200° |
| 2026-05-07 18:31 | 46.43943 | 1.36329 | 33175 ft | 463 kts | 200° |
| 2026-05-07 18:31 | 46.37894 | 1.33017 | 33160 ft | 463 kts | 200° |
| 2026-05-07 18:32 | 46.31918 | 1.29752 | 33164 ft | 463 kts | 200° |
| 2026-05-07 18:32 | 46.25858 | 1.26451 | 33160 ft | 464 kts | 200° |
| 2026-05-07 18:33 | 46.19812 | 1.23164 | 33174 ft | 464 kts | 200° |
| 2026-05-07 18:33 | 46.13768 | 1.19886 | 33162 ft | 464 kts | 200° |
| 2026-05-07 18:34 | 46.07726 | 1.16616 | 33169 ft | 464 kts | 200° |
| 2026-05-07 18:34 | 46.01691 | 1.13359 | 33167 ft | 464 kts | 200° |
| 2026-05-07 18:35 | 45.95699 | 1.10131 | 33173 ft | 464 kts | 200° |
| 2026-05-07 18:35 | 45.89591 | 1.06850 | 33169 ft | 463 kts | 200° |
| 2026-05-07 18:36 | 45.83594 | 1.03407 | 33175 ft | 465 kts | 206° |
| 2026-05-07 18:36 | 45.78127 | 0.98460 | 33162 ft | 465 kts | 218° |
| 2026-05-07 18:37 | 45.73200 | 0.92526 | 33167 ft | 466 kts | 219° |
| 2026-05-07 18:37 | 45.68199 | 0.86522 | 33180 ft | 466 kts | 219° |
| 2026-05-07 18:38 | 45.63229 | 0.80593 | 33176 ft | 467 kts | 219° |
| 2026-05-07 18:38 | 45.58272 | 0.74696 | 33183 ft | 467 kts | 219° |
| 2026-05-07 18:39 | 45.53287 | 0.68780 | 33178 ft | 465 kts | 219° |
| 2026-05-07 18:39 | 45.48301 | 0.62876 | 33167 ft | 465 kts | 219° |
| 2026-05-07 18:40 | 45.43316 | 0.56988 | 33162 ft | 465 kts | 219° |
| 2026-05-07 18:40 | 45.38335 | 0.51119 | 33178 ft | 465 kts | 219° |
| 2026-05-07 18:41 | 45.33352 | 0.45262 | 33179 ft | 465 kts | 219° |
| 2026-05-07 18:41 | 45.28347 | 0.39392 | 33174 ft | 465 kts | 219° |
| 2026-05-07 18:42 | 45.23378 | 0.33578 | 33169 ft | 465 kts | 219° |
| 2026-05-07 18:42 | 45.18381 | 0.27744 | 33178 ft | 465 kts | 219° |
| 2026-05-07 18:43 | 45.13378 | 0.21918 | 33174 ft | 465 kts | 219° |
| 2026-05-07 18:43 | 45.08392 | 0.16125 | 33169 ft | 465 kts | 219° |
| 2026-05-07 18:44 | 45.03374 | 0.10307 | 33181 ft | 465 kts | 218° |
| 2026-05-07 18:44 | 44.98402 | 0.04557 | 33179 ft | 465 kts | 218° |
| 2026-05-07 18:45 | 44.93396 | -0.01217 | 33172 ft | 464 kts | 218° |
| 2026-05-07 18:45 | 44.88390 | -0.06979 | 33166 ft | 464 kts | 218° |
| 2026-05-07 18:46 | 44.83390 | -0.12721 | 33169 ft | 464 kts | 218° |
| 2026-05-07 18:46 | 44.78372 | -0.18469 | 33165 ft | 464 kts | 218° |
| 2026-05-07 18:47 | 44.73399 | -0.24153 | 33175 ft | 464 kts | 218° |
| 2026-05-07 18:47 | 44.68383 | -0.29873 | 33172 ft | 464 kts | 218° |
| 2026-05-07 18:48 | 44.63155 | -0.35123 | 33160 ft | 463 kts | 209° |
| 2026-05-07 18:48 | 44.57455 | -0.39326 | 33158 ft | 462 kts | 207° |
| 2026-05-07 18:49 | 44.51742 | -0.43513 | 33162 ft | 462 kts | 207° |
| 2026-05-07 18:49 | 44.46045 | -0.47692 | 33165 ft | 462 kts | 207° |
| 2026-05-07 18:50 | 44.40339 | -0.51868 | 33160 ft | 463 kts | 207° |
| 2026-05-07 18:50 | 44.34657 | -0.56017 | 33173 ft | 463 kts | 207° |
| 2026-05-07 18:51 | 44.28968 | -0.60162 | 33171 ft | 463 kts | 207° |
| 2026-05-07 18:51 | 44.23252 | -0.64317 | 33171 ft | 463 kts | 207° |
| 2026-05-07 18:52 | 44.17545 | -0.68456 | 33162 ft | 463 kts | 207° |
| 2026-05-07 18:52 | 44.11821 | -0.72598 | 33168 ft | 463 kts | 206° |
| 2026-05-07 18:53 | 44.06128 | -0.76710 | 33167 ft | 463 kts | 206° |
| 2026-05-07 18:53 | 44.00402 | -0.80836 | 33180 ft | 463 kts | 206° |
| 2026-05-07 18:54 | 43.94678 | -0.84951 | 33168 ft | 463 kts | 206° |
| 2026-05-07 18:54 | 43.88985 | -0.89035 | 33177 ft | 464 kts | 206° |
| 2026-05-07 18:55 | 43.83254 | -0.93137 | 33178 ft | 464 kts | 206° |
| 2026-05-07 18:55 | 43.77515 | -0.97237 | 33176 ft | 463 kts | 206° |
| 2026-05-07 18:56 | 43.71787 | -1.01320 | 33178 ft | 463 kts | 206° |
| 2026-05-07 18:56 | 43.66066 | -1.05388 | 33173 ft | 463 kts | 206° |
| 2026-05-07 18:57 | 43.60332 | -1.09458 | 33174 ft | 463 kts | 206° |
| 2026-05-07 18:57 | 43.54597 | -1.13517 | 33170 ft | 463 kts | 206° |
| 2026-05-07 18:58 | 43.48860 | -1.17572 | 33168 ft | 463 kts | 206° |
| 2026-05-07 18:58 | 43.43133 | -1.21610 | 33165 ft | 463 kts | 206° |
| 2026-05-07 18:59 | 43.37421 | -1.25630 | 33159 ft | 463 kts | 206° |
| 2026-05-07 18:59 | 43.31683 | -1.29658 | 33173 ft | 463 kts | 206° |
| 2026-05-07 19:00 | 43.25977 | -1.33655 | 33162 ft | 463 kts | 206° |
| 2026-05-07 19:00 | 43.20203 | -1.37692 | 33172 ft | 466 kts | 206° |
| 2026-05-07 19:01 | 43.14411 | -1.41734 | 33170 ft | 468 kts | 206° |
| 2026-05-07 19:01 | 43.08597 | -1.45782 | 33170 ft | 467 kts | 206° |
| 2026-05-07 19:02 | 43.02794 | -1.49820 | 33173 ft | 470 kts | 206° |
| 2026-05-07 19:02 | 42.96991 | -1.53857 | 33174 ft | 467 kts | 206° |
| 2026-05-07 19:03 | 42.91184 | -1.57888 | 33167 ft | 467 kts | 206° |
| 2026-05-07 19:03 | 42.85399 | -1.61894 | 33167 ft | 465 kts | 206° |
| 2026-05-07 19:04 | 42.79663 | -1.65858 | 33167 ft | 465 kts | 206° |
| 2026-05-07 19:04 | 42.73885 | -1.69843 | 33168 ft | 466 kts | 206° |
| 2026-05-07 19:05 | 42.68091 | -1.73777 | 33174 ft | 466 kts | 205° |
| 2026-05-07 19:05 | 42.62291 | -1.77664 | 33167 ft | 466 kts | 205° |
| 2026-05-07 19:06 | 42.56483 | -1.81557 | 33167 ft | 465 kts | 205° |
| 2026-05-07 19:06 | 42.47785 | -1.87380 | 33162 ft | 465 kts | 205° |